createdAt,value
2023-04-02T00:01:38.964Z,100550.28
2023-04-02T00:04:26.392Z,100555.44
2023-04-02T00:07:33.233Z,100570.00
2023-04-02T00:10:00.432Z,100570.94
2023-04-02T00:12:27.532Z,100578.53
2023-04-02T00:14:55.941Z,100570.50
2023-04-02T00:17:26.045Z,100584.06
2023-04-02T00:20:07.736Z,100582.22
2023-04-02T00:22:34.919Z,100583.94
2023-04-02T00:25:12.409Z,100585.44
2023-04-02T00:27:40.207Z,100573.19
2023-04-02T00:30:14.354Z,100590.78
2023-04-02T00:32:42.150Z,100576.44
2023-04-02T00:35:27.006Z,100597.91
2023-04-02T00:37:55.437Z,100599.94
2023-04-02T00:40:30.925Z,100604.28
2023-04-02T00:43:04.317Z,100617.50
2023-04-02T00:45:38.642Z,100617.66
2023-04-02T00:48:59.610Z,100627.84
2023-04-02T00:51:44.146Z,100620.28
2023-04-02T00:54:16.158Z,100629.03
2023-04-02T00:56:48.223Z,100631.59
2023-04-02T00:59:42.915Z,100635.34
2023-04-02T01:02:17.350Z,100633.66
2023-04-02T01:05:24.604Z,100636.25
2023-04-02T01:08:06.553Z,100634.81
2023-04-02T01:11:04.603Z,100650.69
2023-04-02T01:14:15.777Z,100651.63
2023-04-02T01:17:08.684Z,100649.47
2023-04-02T01:20:12.129Z,100661.38
2023-04-02T01:23:16.927Z,100658.47
2023-04-02T01:26:00.655Z,100664.53
2023-04-02T01:29:02.576Z,100670.03
2023-04-02T01:31:33.120Z,100675.97
2023-04-02T01:34:02.471Z,100674.56
2023-04-02T01:36:47.638Z,100682.81
2023-04-02T01:39:42.610Z,100692.22
2023-04-02T01:42:43.010Z,100696.69
2023-04-02T01:45:19.513Z,100702.72
2023-04-02T01:47:47.296Z,100690.47
2023-04-02T01:50:24.099Z,100702.66
2023-04-02T01:52:59.085Z,100714.97
2023-04-02T01:55:59.995Z,100715.69
2023-04-02T01:58:32.343Z,100713.41
2023-04-02T02:01:17.547Z,100722.38
2023-04-02T02:03:45.534Z,100729.91
2023-04-02T02:06:16.628Z,100737.56
2023-04-02T02:09:03.670Z,100740.75
2023-04-02T02:11:33.566Z,100742.34
2023-04-02T02:14:12.794Z,100757.00
2023-04-02T02:16:41.901Z,100743.25
2023-04-02T02:19:32.839Z,100765.50
2023-04-02T02:22:30.063Z,100772.84
2023-04-02T02:25:01.990Z,100769.78
2023-04-02T02:27:28.891Z,100783.31
2023-04-02T02:30:17.532Z,100782.88
2023-04-02T02:33:04.150Z,100786.06
2023-04-02T02:36:07.613Z,100783.31
2023-04-02T02:38:34.478Z,100794.06
2023-04-02T02:41:31.696Z,100792.59
2023-04-02T02:44:18.581Z,100792.84
2023-04-02T02:46:53.591Z,100801.25
2023-04-02T02:49:32.908Z,100803.47
2023-04-02T02:52:30.859Z,100809.22
2023-04-02T02:55:12.411Z,100814.47
2023-04-02T02:57:56.412Z,100819.81
2023-04-02T03:00:24.685Z,100821.94
2023-04-02T03:02:56.610Z,100822.22
2023-04-02T03:05:29.146Z,100831.94
2023-04-02T03:07:58.106Z,100830.44
2023-04-02T03:10:50.598Z,100836.31
2023-04-02T03:13:35.585Z,100843.25
2023-04-02T03:16:28.178Z,100851.34
2023-04-02T03:19:43.589Z,100854.13
2023-04-02T03:22:38.303Z,100857.63
2023-04-02T03:25:43.740Z,100852.84
2023-04-02T03:28:21.205Z,100870.47
2023-04-02T03:31:01.409Z,100867.31
2023-04-02T03:33:39.436Z,100875.31
2023-04-02T03:36:38.397Z,100878.97
2023-04-02T03:39:51.422Z,100887.53
2023-04-02T03:42:47.941Z,100891.81
2023-04-02T03:45:39.230Z,100894.81
2023-04-02T03:48:38.033Z,100895.34
2023-04-02T03:52:14.820Z,100909.91
2023-04-02T03:54:54.217Z,100905.13
2023-04-02T03:58:08.545Z,100907.94
2023-04-02T04:00:48.150Z,100920.41
2023-04-02T04:03:36.552Z,100918.94
2023-04-02T04:06:27.648Z,100922.22
2023-04-02T04:09:35.339Z,100929.72
2023-04-02T04:12:40.190Z,100938.75
2023-04-02T04:15:21.374Z,100937.66
2023-04-02T04:18:34.824Z,100947.63
2023-04-02T04:21:12.463Z,100950.81
2023-04-02T04:23:41.136Z,100955.44
2023-04-02T04:26:35.066Z,100958.31
2023-04-02T04:29:45.389Z,100962.16
2023-04-02T04:32:38.895Z,100970.94
2023-04-02T04:35:34.430Z,100969.66
2023-04-02T04:38:14.448Z,100972.31
2023-04-02T04:40:54.305Z,100982.81
2023-04-02T04:43:50.406Z,100991.22
2023-04-02T04:46:32.340Z,100991.50
2023-04-02T04:49:33.962Z,100993.44
2023-04-02T04:52:35.392Z,101000.19
2023-04-02T04:55:04.121Z,101011.59
2023-04-02T04:57:41.403Z,101012.47
2023-04-02T05:00:25.964Z,101016.00
2023-04-02T05:03:26.690Z,101018.34
2023-04-02T05:05:59.838Z,101028.22
2023-04-02T05:08:36.575Z,101026.91
2023-04-02T05:11:38.080Z,101031.69
2023-04-02T05:14:20.711Z,101039.50
2023-04-02T05:17:10.172Z,101046.38
2023-04-02T05:20:00.989Z,101053.44
2023-04-02T05:22:51.335Z,101056.31
2023-04-02T05:25:32.566Z,101061.50
2023-04-02T05:28:50.876Z,101077.59
2023-04-02T05:32:07.565Z,101077.31
2023-04-02T05:34:39.588Z,101090.31
2023-04-02T05:37:13.364Z,101091.88
2023-04-02T05:39:49.318Z,101087.94
2023-04-02T05:42:32.230Z,101090.13
2023-04-02T05:45:46.679Z,101101.50
2023-04-02T05:48:30.733Z,101098.84
2023-04-02T05:50:58.978Z,101100.00
2023-04-02T05:53:54.277Z,101107.56
2023-04-02T05:56:39.766Z,101116.25
2023-04-02T05:59:38.514Z,101119.13
2023-04-02T06:02:15.952Z,101125.78
2023-04-02T06:05:11.310Z,101126.44
2023-04-02T06:08:08.795Z,101135.00
2023-04-02T06:11:13.988Z,101123.13
2023-04-02T06:13:41.072Z,101135.00
2023-04-02T06:16:13.033Z,101133.97
2023-04-02T06:18:40.283Z,101145.94
2023-04-02T06:21:08.424Z,101147.34
2023-04-02T06:24:04.349Z,101151.13
2023-04-02T06:26:41.371Z,101156.66
2023-04-02T06:29:28.103Z,101156.84
2023-04-02T06:32:04.118Z,101165.09
2023-04-02T06:34:33.446Z,101173.56
2023-04-02T06:37:37.649Z,101164.03
2023-04-02T06:40:29.429Z,101175.16
2023-04-02T06:43:00.952Z,101189.78
2023-04-02T06:45:41.978Z,101186.66
2023-04-02T06:48:19.431Z,101185.69
2023-04-02T06:50:56.485Z,101194.63
2023-04-02T06:53:45.754Z,101203.53
2023-04-02T06:56:47.768Z,101211.13
2023-04-02T06:59:18.835Z,101224.81
2023-04-02T07:01:55.909Z,101208.06
2023-04-02T07:04:23.513Z,101220.00
2023-04-02T07:06:51.180Z,101230.66
2023-04-02T07:09:18.555Z,101229.63
2023-04-02T07:11:46.341Z,101225.19
2023-04-02T07:14:13.846Z,101233.22
2023-04-02T07:16:44.222Z,101234.84
2023-04-02T07:19:22.894Z,101246.09
2023-04-02T07:21:50.009Z,101242.78
2023-04-02T07:24:17.096Z,101239.72
2023-04-02T07:26:44.326Z,101252.31
2023-04-02T07:29:17.393Z,101243.09
2023-04-02T07:31:44.629Z,101253.97
2023-04-02T07:34:11.973Z,101253.59
2023-04-02T07:36:39.207Z,101254.44
2023-04-02T07:39:06.232Z,101252.75
2023-04-02T07:41:33.562Z,101253.97
2023-04-02T07:44:03.951Z,101270.59
2023-04-02T07:46:31.070Z,101275.19
2023-04-02T07:48:58.234Z,101276.22
2023-04-02T07:51:26.608Z,101277.38
2023-04-02T07:53:55.784Z,101292.94
2023-04-02T07:56:25.498Z,101281.91
2023-04-02T07:58:52.629Z,101285.69
2023-04-02T08:01:27.092Z,101303.72
2023-04-02T08:03:57.049Z,101312.03
2023-04-02T08:06:25.313Z,101311.56
2023-04-02T08:08:52.597Z,101320.09
2023-04-02T08:11:19.993Z,101322.59
2023-04-02T08:13:47.170Z,101324.16
2023-04-02T08:16:14.615Z,101329.50
2023-04-02T08:18:41.788Z,101320.06
2023-04-02T08:21:11.041Z,101328.69
2023-04-02T08:23:38.512Z,101339.25
2023-04-02T08:26:06.963Z,101337.09
2023-04-02T08:28:37.406Z,101347.84
2023-04-02T08:31:04.900Z,101353.78
2023-04-02T08:33:32.501Z,101352.81
2023-04-02T08:35:59.822Z,101353.34
2023-04-02T08:38:27.043Z,101357.09
2023-04-02T08:40:58.626Z,101357.44
2023-04-02T08:44:10.042Z,101362.00
2023-04-02T08:47:01.277Z,101357.50
2023-04-02T08:49:38.439Z,101368.19
2023-04-02T08:52:05.617Z,101373.69
2023-04-02T08:54:39.305Z,101376.78
2023-04-02T08:57:58.959Z,101384.41
2023-04-02T09:00:45.607Z,101371.00
2023-04-02T09:03:45.695Z,101376.69
2023-04-02T09:06:19.189Z,101372.31
2023-04-02T09:08:52.938Z,101386.94
2023-04-02T09:12:03.942Z,101396.44
2023-04-02T09:14:41.795Z,101388.84
2023-04-02T09:17:27.911Z,101393.66
2023-04-02T09:20:21.302Z,101392.38
2023-04-02T09:22:51.731Z,101400.13
2023-04-02T09:25:25.552Z,101392.50
2023-04-02T09:27:57.064Z,101408.63
2023-04-02T09:30:52.658Z,101393.53
2023-04-02T09:33:19.734Z,101391.38
2023-04-02T09:35:57.868Z,101404.13
2023-04-02T09:38:32.708Z,101394.06
2023-04-02T09:41:07.479Z,101403.59
2023-04-02T09:43:39.023Z,101413.00
2023-04-02T09:46:26.282Z,101404.63
2023-04-02T09:49:03.504Z,101427.88
2023-04-02T09:51:36.599Z,101426.81
2023-04-02T09:54:03.637Z,101435.19
2023-04-02T09:56:37.226Z,101443.81
2023-04-02T09:59:13.394Z,101450.91
2023-04-02T10:01:54.640Z,101454.84
2023-04-02T10:04:48.088Z,101456.78
2023-04-02T10:07:45.071Z,101459.09
2023-04-02T10:10:30.714Z,101462.75
2023-04-02T10:13:30.581Z,101448.50
2023-04-02T10:16:27.070Z,101472.66
2023-04-02T10:19:34.082Z,101480.81
2023-04-02T10:22:12.853Z,101488.44
2023-04-02T10:24:40.600Z,101486.91
2023-04-02T10:27:57.537Z,101493.50
2023-04-02T10:31:17.497Z,101498.59
2023-04-02T10:33:55.665Z,101495.03
2023-04-02T10:37:03.572Z,101506.09
2023-04-02T10:39:46.252Z,101501.84
2023-04-02T10:42:43.826Z,101500.34
2023-04-02T10:45:55.604Z,101505.34
2023-04-02T10:48:54.625Z,101515.13
2023-04-02T10:51:33.086Z,101515.81
2023-04-02T10:54:41.642Z,101513.63
2023-04-02T10:57:41.655Z,101522.94
2023-04-02T11:00:12.550Z,101514.56
2023-04-02T11:02:53.360Z,101515.13
2023-04-02T11:05:44.817Z,101525.22
2023-04-02T11:08:47.439Z,101534.22
2023-04-02T11:11:36.606Z,101539.28
2023-04-02T11:14:30.407Z,101538.03
2023-04-02T11:17:02.906Z,101538.47
2023-04-02T11:19:33.352Z,101545.50
2023-04-02T11:22:25.784Z,101541.59
2023-04-02T11:24:56.009Z,101538.72
2023-04-02T11:27:33.878Z,101527.53
2023-04-02T11:30:16.193Z,101539.47
2023-04-02T11:32:49.339Z,101537.19
2023-04-02T11:35:33.949Z,101539.38
2023-04-02T11:38:10.054Z,101544.59
2023-04-02T11:40:55.774Z,101552.00
2023-04-02T11:43:37.815Z,101552.34
2023-04-02T11:46:28.991Z,101566.34
2023-04-02T11:49:37.728Z,101567.91
2023-04-02T11:52:18.981Z,101576.56
2023-04-02T11:54:54.937Z,101581.72
2023-04-02T11:57:49.854Z,101573.09
2023-04-02T12:00:31.804Z,101588.00
2023-04-02T12:04:09.825Z,101590.72
2023-04-02T12:07:20.335Z,101591.47
2023-04-02T12:09:56.150Z,101598.63
2023-04-02T12:12:33.853Z,101598.16
2023-04-02T12:15:01.475Z,101596.88
2023-04-02T12:17:38.242Z,101592.75
2023-04-02T12:20:13.625Z,101605.38
2023-04-02T12:22:50.834Z,101606.50
2023-04-02T12:25:34.568Z,101611.91
2023-04-02T12:28:18.548Z,101616.22
2023-04-02T12:30:48.655Z,101610.28
2023-04-02T12:33:38.130Z,101599.53
2023-04-02T12:36:23.678Z,101617.22
2023-04-02T12:38:54.578Z,101605.09
2023-04-02T12:41:36.620Z,101607.59
2023-04-02T12:44:18.436Z,101606.28
2023-04-02T12:46:46.607Z,101616.16
2023-04-02T12:49:42.108Z,101616.88
2023-04-02T12:52:24.494Z,101616.16
2023-04-02T12:55:03.258Z,101627.22
2023-04-02T12:57:30.272Z,101634.63
2023-04-02T13:00:06.524Z,101626.38
2023-04-02T13:02:46.965Z,101633.94
2023-04-02T13:05:31.359Z,101634.44
2023-04-02T13:07:58.507Z,101637.81
2023-04-02T13:10:27.866Z,101638.72
2023-04-02T13:13:06.543Z,101633.75
2023-04-02T13:15:36.700Z,101640.72
2023-04-02T13:18:05.374Z,101634.84
2023-04-02T13:20:41.939Z,101647.94
2023-04-02T13:23:32.997Z,101648.88
2023-04-02T13:26:26.158Z,101654.56
2023-04-02T13:29:03.247Z,101652.75
2023-04-02T13:31:33.334Z,101649.72
2023-04-02T13:34:01.167Z,101649.66
2023-04-02T13:36:29.458Z,101651.69
2023-04-02T13:38:57.406Z,101650.72
2023-04-02T13:41:59.475Z,101645.66
2023-04-02T13:44:34.564Z,101657.13
2023-04-02T13:47:01.919Z,101658.34
2023-04-02T13:49:29.822Z,101663.06
2023-04-02T13:52:05.516Z,101673.03
2023-04-02T13:54:49.241Z,101673.34
2023-04-02T13:57:16.823Z,101673.91
2023-04-02T13:59:43.940Z,101671.22
2023-04-02T14:02:24.330Z,101672.72
2023-04-02T14:05:17.408Z,101670.06
2023-04-02T14:08:16.538Z,101668.22
2023-04-02T14:11:21.393Z,101673.88
2023-04-02T14:14:36.424Z,101677.41
2023-04-02T14:17:17.669Z,101677.00
2023-04-02T14:20:32.116Z,101675.53
2023-04-02T14:23:48.105Z,101694.84
2023-04-02T14:26:40.072Z,101695.31
2023-04-02T14:29:21.968Z,101692.91
2023-04-02T14:32:20.344Z,101694.97
2023-04-02T14:35:25.304Z,101707.06
2023-04-02T14:38:04.901Z,101702.69
2023-04-02T14:41:08.776Z,101702.06
2023-04-02T14:43:45.339Z,101690.94
2023-04-02T14:46:12.706Z,101709.44
2023-04-02T14:49:08.940Z,101718.19
2023-04-02T14:52:00.694Z,101723.41
2023-04-02T14:54:42.662Z,101713.47
2023-04-02T14:57:32.779Z,101719.06
2023-04-02T15:00:33.814Z,101715.06
2023-04-02T15:03:17.106Z,101717.66
2023-04-02T15:06:10.630Z,101737.16
2023-04-02T15:09:09.473Z,101735.03
2023-04-02T15:11:54.896Z,101735.94
2023-04-02T15:15:02.308Z,101739.09
2023-04-02T15:17:30.978Z,101734.00
2023-04-02T15:20:17.658Z,101739.75
2023-04-02T15:23:07.871Z,101747.25
2023-04-02T15:25:55.372Z,101751.63
2023-04-02T15:28:37.200Z,101764.34
2023-04-02T15:31:12.904Z,101766.63
2023-04-02T15:34:05.797Z,101763.63
2023-04-02T15:37:03.067Z,101764.75
2023-04-02T15:40:06.033Z,101769.72
2023-04-02T15:43:24.310Z,101765.97
2023-04-02T15:46:31.009Z,101783.97
2023-04-02T15:50:00.950Z,101788.25
2023-04-02T15:52:58.969Z,101795.78
2023-04-02T15:56:24.508Z,101780.38
2023-04-02T15:59:39.262Z,101788.84
2023-04-02T16:03:09.907Z,101789.34
2023-04-02T16:06:00.719Z,101795.63
2023-04-02T16:08:45.249Z,101809.66
2023-04-02T16:11:15.158Z,101818.25
2023-04-02T16:13:43.726Z,101823.75
2023-04-02T16:16:32.583Z,101815.13
2023-04-02T16:19:40.120Z,101815.66
2023-04-02T16:22:30.517Z,101825.16
2023-04-02T16:25:16.376Z,101823.47
2023-04-02T16:28:28.266Z,101835.13
2023-04-02T16:31:37.620Z,101840.31
2023-04-02T16:35:22.197Z,101844.47
2023-04-02T16:38:20.686Z,101860.88
2023-04-02T16:41:41.301Z,101857.09
2023-04-02T16:44:45.973Z,101867.41
2023-04-02T16:47:21.491Z,101870.13
2023-04-02T16:50:21.388Z,101873.75
2023-04-02T16:53:17.061Z,101879.66
2023-04-02T16:56:35.062Z,101882.31
2023-04-02T16:59:40.402Z,101897.28
2023-04-02T17:02:45.998Z,101890.56
2023-04-02T17:05:56.678Z,101901.25
2023-04-02T17:08:50.630Z,101901.63
2023-04-02T17:11:48.883Z,101912.56
2023-04-02T17:14:52.669Z,101917.34
2023-04-02T17:17:22.505Z,101924.00
2023-04-02T17:19:58.588Z,101924.84
2023-04-02T17:22:25.706Z,101916.78
2023-04-02T17:25:00.144Z,101933.16
2023-04-02T17:27:42.909Z,101927.09
2023-04-02T17:30:51.684Z,101935.81
2023-04-02T17:33:21.588Z,101931.16
2023-04-02T17:36:09.971Z,101940.78
2023-04-02T17:39:25.451Z,101940.16
2023-04-02T17:42:17.158Z,101950.41
2023-04-02T17:45:18.212Z,101954.84
2023-04-02T17:48:25.383Z,101954.72
2023-04-02T17:51:21.728Z,101969.00
2023-04-02T17:54:22.061Z,101967.78
2023-04-02T17:57:00.602Z,101969.56
2023-04-02T18:00:44.478Z,101981.97
2023-04-02T18:04:04.938Z,101986.91
2023-04-02T18:07:06.879Z,101987.06
2023-04-02T18:09:43.336Z,102003.94
2023-04-02T18:12:40.541Z,101999.00
2023-04-02T18:15:41.668Z,102011.84
2023-04-02T18:19:16.134Z,102008.47
2023-04-02T18:22:39.287Z,102018.59
2023-04-02T18:26:09.002Z,102018.13
2023-04-02T18:29:08.056Z,102027.78
2023-04-02T18:31:52.916Z,102025.22
2023-04-02T18:35:10.482Z,102023.31
2023-04-02T18:38:26.830Z,102037.50
2023-04-02T18:41:14.937Z,102042.97
2023-04-02T18:44:25.507Z,102044.31
2023-04-02T18:46:59.416Z,102051.25
2023-04-02T18:49:40.293Z,102057.22
2023-04-02T18:52:17.344Z,102057.44
2023-04-02T18:54:55.455Z,102069.97
2023-04-02T18:57:29.933Z,102063.94
2023-04-02T19:00:40.023Z,102075.69
2023-04-02T19:03:31.545Z,102080.09
2023-04-02T19:06:08.854Z,102079.66
2023-04-02T19:09:01.140Z,102090.66
2023-04-02T19:11:29.487Z,102093.16
2023-04-02T19:14:01.213Z,102088.47
2023-04-02T19:16:59.598Z,102101.81
2023-04-02T19:20:02.329Z,102098.72
2023-04-02T19:22:56.278Z,102113.88
2023-04-02T19:25:56.077Z,102119.75
2023-04-02T19:28:28.583Z,102121.50
2023-04-02T19:31:26.298Z,102118.16
2023-04-02T19:34:23.293Z,102121.91
2023-04-02T19:37:36.572Z,102124.28
2023-04-02T19:40:46.800Z,102134.94
2023-04-02T19:43:13.906Z,102137.31
2023-04-02T19:45:45.182Z,102144.25
2023-04-02T19:48:44.188Z,102152.06
2023-04-02T19:51:11.445Z,102143.53
2023-04-02T19:53:38.493Z,102155.19
2023-04-02T19:56:05.544Z,102145.75
2023-04-02T19:58:35.965Z,102158.97
2023-04-02T20:01:03.823Z,102163.81
2023-04-02T20:03:31.495Z,102165.53
2023-04-02T20:05:59.677Z,102161.28
2023-04-02T20:08:28.271Z,102162.44
2023-04-02T20:10:58.574Z,102165.59
2023-04-02T20:13:25.816Z,102172.50
2023-04-02T20:15:53.059Z,102174.97
2023-04-02T20:18:21.487Z,102177.91
2023-04-02T20:20:51.399Z,102180.75
2023-04-02T20:23:20.031Z,102181.19
2023-04-02T20:25:53.025Z,102182.38
2023-04-02T20:28:22.731Z,102195.06
2023-04-02T20:30:50.591Z,102187.72
2023-04-02T20:35:16.205Z,102182.88
2023-04-02T20:39:51.961Z,102199.06
2023-04-02T20:42:19.101Z,102194.78
2023-04-02T20:44:46.291Z,102205.16
2023-04-02T20:47:13.819Z,102213.59
2023-04-02T20:49:41.364Z,102213.31
2023-04-02T20:52:09.292Z,102218.56
2023-04-02T20:54:36.652Z,102221.50
2023-04-02T20:57:05.272Z,102229.09
2023-04-02T20:59:32.419Z,102231.81
2023-04-02T21:01:59.634Z,102232.69
2023-04-02T21:04:28.643Z,102243.22
2023-04-02T21:06:57.099Z,102233.19
2023-04-02T21:09:24.302Z,102244.03
2023-04-02T21:11:51.529Z,102242.75
2023-04-02T21:14:19.066Z,102244.41
2023-04-02T21:16:46.294Z,102243.19
2023-04-02T21:19:13.398Z,102246.47
2023-04-02T21:21:41.059Z,102248.25
2023-04-02T21:24:09.736Z,102247.50
2023-04-02T21:26:40.945Z,102247.69
2023-04-02T21:29:08.163Z,102250.56
2023-04-02T21:31:39.679Z,102242.47
2023-04-02T21:34:09.059Z,102246.59
2023-04-02T21:36:45.494Z,102250.97
2023-04-02T21:39:20.488Z,102258.06
2023-04-02T21:41:50.807Z,102249.00
2023-04-02T21:44:23.715Z,102252.56
2023-04-02T21:46:53.678Z,102263.34
2023-04-02T21:49:23.505Z,102253.38
2023-04-02T21:51:52.136Z,102266.69
2023-04-02T21:54:21.516Z,102273.88
2023-04-02T21:56:51.887Z,102272.66
2023-04-02T21:59:19.802Z,102272.56
2023-04-02T22:01:50.431Z,102270.69
2023-04-02T22:04:25.651Z,102282.19
2023-04-02T22:06:54.041Z,102275.69
2023-04-02T22:09:25.081Z,102282.03
2023-04-02T22:11:59.038Z,102286.53
2023-04-02T22:14:27.390Z,102286.88
2023-04-02T22:17:00.884Z,102294.09
2023-04-02T22:19:28.141Z,102301.50
2023-04-02T22:21:56.277Z,102302.19
2023-04-02T22:24:23.336Z,102301.97
2023-04-02T22:26:51.092Z,102301.63
2023-04-02T22:29:18.336Z,102302.81
2023-04-02T22:31:45.535Z,102308.56
2023-04-02T22:34:12.686Z,102301.69
2023-04-02T22:36:39.800Z,102309.03
2023-04-02T22:39:10.288Z,102309.88
2023-04-02T22:41:38.232Z,102315.78
2023-04-02T22:44:05.461Z,102309.00
2023-04-02T22:46:32.689Z,102320.78
2023-04-02T22:48:59.876Z,102315.03
2023-04-02T22:51:27.987Z,102323.94
2023-04-02T22:53:58.144Z,102328.72
2023-04-02T22:56:32.783Z,102322.63
2023-04-02T22:58:59.929Z,102321.69
2023-04-02T23:01:35.427Z,102331.59
2023-04-02T23:04:04.769Z,102322.09
2023-04-02T23:06:32.530Z,102335.22
2023-04-02T23:08:59.680Z,102336.56
2023-04-02T23:11:28.245Z,102342.31
2023-04-02T23:13:57.997Z,102350.53
2023-04-02T23:16:29.476Z,102344.06
2023-04-02T23:18:57.418Z,102347.72
2023-04-02T23:21:26.139Z,102347.25
2023-04-02T23:23:53.600Z,102355.78
2023-04-02T23:26:29.578Z,102350.75
2023-04-02T23:28:59.374Z,102361.59
2023-04-02T23:31:27.190Z,102355.00
2023-04-02T23:33:54.641Z,102359.25
2023-04-02T23:36:34.369Z,102358.59
2023-04-02T23:39:10.268Z,102361.00
2023-04-02T23:41:40.826Z,102362.00
2023-04-02T23:44:10.910Z,102359.94
2023-04-02T23:46:38.271Z,102364.63
2023-04-02T23:49:05.578Z,102362.09
2023-04-02T23:51:32.949Z,102366.00
2023-04-02T23:54:00.275Z,102356.59
2023-04-02T23:56:28.345Z,102359.38
2023-04-02T23:58:55.721Z,102367.16
